sensor_id;sensor_type;location;lat;lon;timestamp;P1;durP1;ratioP1;P2;durP2;ratioP2
49015;SDS011;34830;44.064;12.566;2022-09-24T00:00:48;5.50;;;2.17;;
49015;SDS011;34830;44.064;12.566;2022-09-24T00:03:18;5.63;;;2.03;;
49015;SDS011;34830;44.064;12.566;2022-09-24T00:05:45;3.55;;;1.85;;
49015;SDS011;34830;44.064;12.566;2022-09-24T00:08:13;3.85;;;2.08;;
49015;SDS011;34830;44.064;12.566;2022-09-24T00:10:41;4.35;;;2.53;;
49015;SDS011;34830;44.064;12.566;2022-09-24T00:13:09;6.70;;;1.80;;
49015;SDS011;34830;44.064;12.566;2022-09-24T00:15:39;3.63;;;1.75;;
49015;SDS011;34830;44.064;12.566;2022-09-24T00:18:10;5.78;;;2.33;;
49015;SDS011;34830;44.064;12.566;2022-09-24T00:20:37;6.55;;;2.28;;
49015;SDS011;34830;44.064;12.566;2022-09-24T00:23:04;4.00;;;1.85;;
49015;SDS011;34830;44.064;12.566;2022-09-24T00:25:31;4.95;;;1.92;;
49015;SDS011;34830;44.064;12.566;2022-09-24T00:28:15;7.20;;;2.25;;
49015;SDS011;34830;44.064;12.566;2022-09-24T00:30:42;7.65;;;2.08;;
49015;SDS011;34830;44.064;12.566;2022-09-24T00:33:09;3.20;;;1.77;;
49015;SDS011;34830;44.064;12.566;2022-09-24T00:35:36;5.13;;;2.20;;
49015;SDS011;34830;44.064;12.566;2022-09-24T00:38:03;3.55;;;2.00;;
49015;SDS011;34830;44.064;12.566;2022-09-24T00:40:31;5.10;;;2.53;;
49015;SDS011;34830;44.064;12.566;2022-09-24T00:43:00;5.10;;;2.35;;
49015;SDS011;34830;44.064;12.566;2022-09-24T00:45:26;4.43;;;2.30;;
49015;SDS011;34830;44.064;12.566;2022-09-24T00:47:54;3.90;;;2.15;;
49015;SDS011;34830;44.064;12.566;2022-09-24T00:50:32;7.55;;;2.10;;
49015;SDS011;34830;44.064;12.566;2022-09-24T00:53:03;3.25;;;2.00;;
49015;SDS011;34830;44.064;12.566;2022-09-24T00:55:32;11.10;;;2.75;;
49015;SDS011;34830;44.064;12.566;2022-09-24T00:57:59;3.92;;;1.77;;
49015;SDS011;34830;44.064;12.566;2022-09-24T01:00:28;10.50;;;2.58;;
49015;SDS011;34830;44.064;12.566;2022-09-24T01:03:00;3.65;;;1.75;;
49015;SDS011;34830;44.064;12.566;2022-09-24T01:05:30;4.07;;;1.88;;
49015;SDS011;34830;44.064;12.566;2022-09-24T01:07:57;4.72;;;2.10;;
49015;SDS011;34830;44.064;12.566;2022-09-24T01:10:27;5.50;;;2.30;;
49015;SDS011;34830;44.064;12.566;2022-09-24T01:13:24;4.72;;;2.00;;
49015;SDS011;34830;44.064;12.566;2022-09-24T01:16:16;6.07;;;2.22;;
49015;SDS011;34830;44.064;12.566;2022-09-24T01:22:43;5.63;;;2.10;;
49015;SDS011;34830;44.064;12.566;2022-09-24T01:30:22;4.32;;;1.88;;
49015;SDS011;34830;44.064;12.566;2022-09-24T01:32:51;8.25;;;2.22;;
49015;SDS011;34830;44.064;12.566;2022-09-24T01:35:20;4.97;;;2.17;;
49015;SDS011;34830;44.064;12.566;2022-09-24T01:37:50;6.53;;;2.30;;
49015;SDS011;34830;44.064;12.566;2022-09-24T01:40:19;5.22;;;2.33;;
49015;SDS011;34830;44.064;12.566;2022-09-24T01:42:47;4.78;;;2.22;;
49015;SDS011;34830;44.064;12.566;2022-09-24T01:45:15;5.20;;;2.30;;
49015;SDS011;34830;44.064;12.566;2022-09-24T01:47:42;8.93;;;2.33;;
49015;SDS011;34830;44.064;12.566;2022-09-24T01:50:11;7.85;;;2.13;;
49015;SDS011;34830;44.064;12.566;2022-09-24T01:52:45;4.25;;;2.28;;
49015;SDS011;34830;44.064;12.566;2022-09-24T01:55:19;5.70;;;2.55;;
49015;SDS011;34830;44.064;12.566;2022-09-24T01:57:59;4.32;;;2.25;;
49015;SDS011;34830;44.064;12.566;2022-09-24T02:00:26;4.18;;;2.03;;
49015;SDS011;34830;44.064;12.566;2022-09-24T02:13:20;4.18;;;2.10;;
49015;SDS011;34830;44.064;12.566;2022-09-24T02:15:50;4.22;;;2.25;;
49015;SDS011;34830;44.064;12.566;2022-09-24T02:18:18;5.30;;;2.25;;
49015;SDS011;34830;44.064;12.566;2022-09-24T02:20:47;12.75;;;2.25;;
49015;SDS011;34830;44.064;12.566;2022-09-24T02:23:14;4.22;;;1.80;;
49015;SDS011;34830;44.064;12.566;2022-09-24T02:25:57;6.22;;;2.00;;
49015;SDS011;34830;44.064;12.566;2022-09-24T02:28:24;8.88;;;2.28;;
49015;SDS011;34830;44.064;12.566;2022-09-24T02:30:53;4.93;;;2.15;;
49015;SDS011;34830;44.064;12.566;2022-09-24T02:33:22;5.88;;;2.53;;
49015;SDS011;34830;44.064;12.566;2022-09-24T02:36:07;5.95;;;2.50;;
49015;SDS011;34830;44.064;12.566;2022-09-24T02:38:33;4.97;;;2.05;;
49015;SDS011;34830;44.064;12.566;2022-09-24T02:40:59;5.15;;;2.40;;
49015;SDS011;34830;44.064;12.566;2022-09-24T02:43:26;5.65;;;2.70;;
49015;SDS011;34830;44.064;12.566;2022-09-24T02:45:52;6.38;;;2.30;;
49015;SDS011;34830;44.064;12.566;2022-09-24T02:48:19;3.65;;;1.90;;
49015;SDS011;34830;44.064;12.566;2022-09-24T02:50:45;5.70;;;1.88;;
49015;SDS011;34830;44.064;12.566;2022-09-24T02:53:11;3.88;;;2.03;;
49015;SDS011;34830;44.064;12.566;2022-09-24T02:55:37;5.15;;;2.55;;
49015;SDS011;34830;44.064;12.566;2022-09-24T02:58:03;9.32;;;2.00;;
49015;SDS011;34830;44.064;12.566;2022-09-24T03:00:29;5.47;;;2.20;;
49015;SDS011;34830;44.064;12.566;2022-09-24T03:02:55;7.65;;;2.10;;
49015;SDS011;34830;44.064;12.566;2022-09-24T03:05:21;4.43;;;2.00;;
49015;SDS011;34830;44.064;12.566;2022-09-24T03:07:47;4.15;;;1.92;;
49015;SDS011;34830;44.064;12.566;2022-09-24T03:10:13;8.02;;;2.15;;
49015;SDS011;34830;44.064;12.566;2022-09-24T03:12:39;3.67;;;1.88;;
49015;SDS011;34830;44.064;12.566;2022-09-24T03:15:06;5.85;;;2.20;;
49015;SDS011;34830;44.064;12.566;2022-09-24T03:17:33;5.80;;;1.88;;
49015;SDS011;34830;44.064;12.566;2022-09-24T03:19:59;6.00;;;1.90;;
49015;SDS011;34830;44.064;12.566;2022-09-24T03:22:25;4.28;;;1.80;;
49015;SDS011;34830;44.064;12.566;2022-09-24T03:24:51;4.22;;;2.00;;
49015;SDS011;34830;44.064;12.566;2022-09-24T03:27:18;3.45;;;1.50;;
49015;SDS011;34830;44.064;12.566;2022-09-24T03:29:44;6.85;;;2.08;;
49015;SDS011;34830;44.064;12.566;2022-09-24T03:32:29;3.25;;;1.80;;
49015;SDS011;34830;44.064;12.566;2022-09-24T03:34:58;5.72;;;2.03;;
49015;SDS011;34830;44.064;12.566;2022-09-24T03:37:26;3.33;;;1.65;;
49015;SDS011;34830;44.064;12.566;2022-09-24T03:39:52;4.40;;;1.83;;
49015;SDS011;34830;44.064;12.566;2022-09-24T03:42:18;5.30;;;1.75;;
49015;SDS011;34830;44.064;12.566;2022-09-24T03:44:44;4.95;;;1.90;;
49015;SDS011;34830;44.064;12.566;2022-09-24T03:47:10;8.02;;;2.13;;
49015;SDS011;34830;44.064;12.566;2022-09-24T03:49:36;6.65;;;1.88;;
49015;SDS011;34830;44.064;12.566;2022-09-24T03:52:02;4.80;;;2.13;;
49015;SDS011;34830;44.064;12.566;2022-09-24T03:54:28;5.45;;;1.90;;
49015;SDS011;34830;44.064;12.566;2022-09-24T03:56:54;7.65;;;2.70;;
49015;SDS011;34830;44.064;12.566;2022-09-24T03:59:20;3.88;;;1.70;;
49015;SDS011;34830;44.064;12.566;2022-09-24T04:01:46;4.40;;;1.98;;
49015;SDS011;34830;44.064;12.566;2022-09-24T04:04:12;3.45;;;2.20;;
49015;SDS011;34830;44.064;12.566;2022-09-24T04:06:40;5.13;;;1.88;;
49015;SDS011;34830;44.064;12.566;2022-09-24T04:09:07;4.97;;;1.77;;
49015;SDS011;34830;44.064;12.566;2022-09-24T04:11:33;2.85;;;1.67;;
49015;SDS011;34830;44.064;12.566;2022-09-24T04:14:00;4.30;;;1.60;;
49015;SDS011;34830;44.064;12.566;2022-09-24T04:16:26;5.30;;;1.80;;
49015;SDS011;34830;44.064;12.566;2022-09-24T04:18:52;5.35;;;1.90;;
49015;SDS011;34830;44.064;12.566;2022-09-24T04:21:20;6.15;;;2.00;;
49015;SDS011;34830;44.064;12.566;2022-09-24T04:23:46;4.03;;;1.40;;
49015;SDS011;34830;44.064;12.566;2022-09-24T04:26:12;5.13;;;1.42;;
49015;SDS011;34830;44.064;12.566;2022-09-24T04:28:38;3.78;;;1.13;;
49015;SDS011;34830;44.064;12.566;2022-09-24T04:31:04;3.60;;;1.40;;
49015;SDS011;34830;44.064;12.566;2022-09-24T04:33:30;2.35;;;1.27;;
49015;SDS011;34830;44.064;12.566;2022-09-24T04:35:56;6.72;;;1.65;;
49015;SDS011;34830;44.064;12.566;2022-09-24T04:38:22;19.58;;;3.25;;
49015;SDS011;34830;44.064;12.566;2022-09-24T04:40:48;5.30;;;1.63;;
49015;SDS011;34830;44.064;12.566;2022-09-24T04:43:14;4.28;;;1.27;;
49015;SDS011;34830;44.064;12.566;2022-09-24T04:45:43;4.25;;;2.00;;
49015;SDS011;34830;44.064;12.566;2022-09-24T04:48:10;6.25;;;1.70;;
49015;SDS011;34830;44.064;12.566;2022-09-24T04:50:36;5.45;;;1.52;;
49015;SDS011;34830;44.064;12.566;2022-09-24T04:53:03;3.78;;;1.83;;
49015;SDS011;34830;44.064;12.566;2022-09-24T04:55:29;2.30;;;1.23;;
49015;SDS011;34830;44.064;12.566;2022-09-24T04:57:57;3.08;;;1.33;;
49015;SDS011;34830;44.064;12.566;2022-09-24T05:00:23;7.20;;;1.65;;
49015;SDS011;34830;44.064;12.566;2022-09-24T05:02:56;5.68;;;1.30;;
49015;SDS011;34830;44.064;12.566;2022-09-24T05:05:23;3.53;;;1.23;;
49015;SDS011;34830;44.064;12.566;2022-09-24T05:07:49;4.60;;;1.92;;
49015;SDS011;34830;44.064;12.566;2022-09-24T05:10:16;9.77;;;1.98;;
49015;SDS011;34830;44.064;12.566;2022-09-24T05:12:42;5.30;;;1.60;;
49015;SDS011;34830;44.064;12.566;2022-09-24T05:15:08;9.88;;;1.48;;
49015;SDS011;34830;44.064;12.566;2022-09-24T05:17:38;4.90;;;1.25;;
49015;SDS011;34830;44.064;12.566;2022-09-24T05:20:05;4.82;;;2.08;;
49015;SDS011;34830;44.064;12.566;2022-09-24T05:22:32;4.13;;;1.70;;
49015;SDS011;34830;44.064;12.566;2022-09-24T05:24:58;4.45;;;1.60;;
49015;SDS011;34830;44.064;12.566;2022-09-24T05:27:24;3.67;;;1.60;;
49015;SDS011;34830;44.064;12.566;2022-09-24T05:29:50;4.75;;;1.30;;
49015;SDS011;34830;44.064;12.566;2022-09-24T05:32:17;2.70;;;1.45;;
49015;SDS011;34830;44.064;12.566;2022-09-24T05:34:44;4.90;;;1.95;;
49015;SDS011;34830;44.064;12.566;2022-09-24T05:37:11;7.68;;;1.60;;
49015;SDS011;34830;44.064;12.566;2022-09-24T05:39:38;3.67;;;1.30;;
49015;SDS011;34830;44.064;12.566;2022-09-24T05:42:04;3.97;;;1.48;;
49015;SDS011;34830;44.064;12.566;2022-09-24T05:44:32;3.83;;;1.30;;
49015;SDS011;34830;44.064;12.566;2022-09-24T05:46:58;7.55;;;2.17;;
49015;SDS011;34830;44.064;12.566;2022-09-24T05:49:24;11.65;;;1.90;;
49015;SDS011;34830;44.064;12.566;2022-09-24T05:51:51;5.55;;;1.45;;
49015;SDS011;34830;44.064;12.566;2022-09-24T05:54:17;6.05;;;1.38;;
49015;SDS011;34830;44.064;12.566;2022-09-24T05:56:44;6.85;;;1.70;;
49015;SDS011;34830;44.064;12.566;2022-09-24T05:59:10;4.30;;;1.58;;
49015;SDS011;34830;44.064;12.566;2022-09-24T06:01:37;4.55;;;1.70;;
49015;SDS011;34830;44.064;12.566;2022-09-24T06:04:03;5.45;;;1.45;;
49015;SDS011;34830;44.064;12.566;2022-09-24T06:06:29;5.55;;;1.48;;
49015;SDS011;34830;44.064;12.566;2022-09-24T06:08:55;5.13;;;1.70;;
49015;SDS011;34830;44.064;12.566;2022-09-24T06:11:21;3.97;;;1.27;;
49015;SDS011;34830;44.064;12.566;2022-09-24T06:13:48;5.45;;;1.65;;
49015;SDS011;34830;44.064;12.566;2022-09-24T06:16:15;2.50;;;1.10;;
49015;SDS011;34830;44.064;12.566;2022-09-24T06:18:42;4.60;;;1.15;;
49015;SDS011;34830;44.064;12.566;2022-09-24T06:21:13;2.65;;;0.90;;
49015;SDS011;34830;44.064;12.566;2022-09-24T06:23:40;3.83;;;0.90;;
49015;SDS011;34830;44.064;12.566;2022-09-24T06:26:07;5.45;;;1.00;;
49015;SDS011;34830;44.064;12.566;2022-09-24T06:28:35;6.05;;;1.20;;
49015;SDS011;34830;44.064;12.566;2022-09-24T06:31:02;7.72;;;1.13;;
49015;SDS011;34830;44.064;12.566;2022-09-24T06:33:29;2.58;;;0.93;;
49015;SDS011;34830;44.064;12.566;2022-09-24T06:35:58;4.50;;;1.15;;
49015;SDS011;34830;44.064;12.566;2022-09-24T06:38:25;5.10;;;2.55;;
49015;SDS011;34830;44.064;12.566;2022-09-24T06:40:51;3.72;;;1.55;;
49015;SDS011;34830;44.064;12.566;2022-09-24T06:43:17;4.63;;;1.40;;
49015;SDS011;34830;44.064;12.566;2022-09-24T06:45:43;2.78;;;0.90;;
49015;SDS011;34830;44.064;12.566;2022-09-24T06:48:10;5.43;;;1.52;;
49015;SDS011;34830;44.064;12.566;2022-09-24T06:50:41;2.08;;;0.93;;
49015;SDS011;34830;44.064;12.566;2022-09-24T06:53:08;3.22;;;1.10;;
49015;SDS011;34830;44.064;12.566;2022-09-24T06:55:35;2.42;;;1.00;;
49015;SDS011;34830;44.064;12.566;2022-09-24T06:58:06;3.72;;;1.10;;
49015;SDS011;34830;44.064;12.566;2022-09-24T07:00:35;8.82;;;1.85;;
49015;SDS011;34830;44.064;12.566;2022-09-24T07:03:01;2.55;;;1.10;;
49015;SDS011;34830;44.064;12.566;2022-09-24T07:05:28;4.43;;;1.42;;
49015;SDS011;34830;44.064;12.566;2022-09-24T07:07:54;7.90;;;1.70;;
49015;SDS011;34830;44.064;12.566;2022-09-24T07:10:20;4.60;;;1.25;;
49015;SDS011;34830;44.064;12.566;2022-09-24T07:12:48;5.25;;;1.23;;
49015;SDS011;34830;44.064;12.566;2022-09-24T07:15:15;5.00;;;1.55;;
49015;SDS011;34830;44.064;12.566;2022-09-24T07:17:41;7.03;;;1.70;;
49015;SDS011;34830;44.064;12.566;2022-09-24T07:20:07;4.63;;;2.15;;
49015;SDS011;34830;44.064;12.566;2022-09-24T07:22:38;8.48;;;1.50;;
49015;SDS011;34830;44.064;12.566;2022-09-24T07:25:06;3.38;;;0.90;;
49015;SDS011;34830;44.064;12.566;2022-09-24T07:27:33;4.80;;;1.30;;
49015;SDS011;34830;44.064;12.566;2022-09-24T07:29:59;2.80;;;0.60;;
49015;SDS011;34830;44.064;12.566;2022-09-24T07:32:25;3.90;;;1.10;;
49015;SDS011;34830;44.064;12.566;2022-09-24T07:34:51;3.75;;;0.90;;
49015;SDS011;34830;44.064;12.566;2022-09-24T07:37:18;6.28;;;1.48;;
49015;SDS011;34830;44.064;12.566;2022-09-24T07:39:44;5.60;;;0.82;;
49015;SDS011;34830;44.064;12.566;2022-09-24T07:42:10;7.63;;;1.02;;
49015;SDS011;34830;44.064;12.566;2022-09-24T07:44:36;3.05;;;1.13;;
49015;SDS011;34830;44.064;12.566;2022-09-24T07:47:03;5.45;;;0.73;;
49015;SDS011;34830;44.064;12.566;2022-09-24T07:49:29;4.30;;;1.85;;
49015;SDS011;34830;44.064;12.566;2022-09-24T07:52:00;2.67;;;0.70;;
49015;SDS011;34830;44.064;12.566;2022-09-24T07:54:26;3.67;;;0.90;;
49015;SDS011;34830;44.064;12.566;2022-09-24T07:56:55;4.00;;;1.00;;
49015;SDS011;34830;44.064;12.566;2022-09-24T07:59:21;5.53;;;2.55;;
49015;SDS011;34830;44.064;12.566;2022-09-24T08:01:47;3.28;;;1.05;;
49015;SDS011;34830;44.064;12.566;2022-09-24T08:04:13;3.60;;;1.63;;
49015;SDS011;34830;44.064;12.566;2022-09-24T08:06:39;3.78;;;1.63;;
49015;SDS011;34830;44.064;12.566;2022-09-24T08:09:05;3.35;;;0.93;;
49015;SDS011;34830;44.064;12.566;2022-09-24T08:11:32;6.22;;;1.00;;
49015;SDS011;34830;44.064;12.566;2022-09-24T08:13:58;2.28;;;0.93;;
49015;SDS011;34830;44.064;12.566;2022-09-24T08:16:25;4.10;;;1.00;;
49015;SDS011;34830;44.064;12.566;2022-09-24T08:18:52;2.63;;;0.90;;
49015;SDS011;34830;44.064;12.566;2022-09-24T08:21:18;4.10;;;0.90;;
49015;SDS011;34830;44.064;12.566;2022-09-24T08:23:44;4.63;;;0.70;;
49015;SDS011;34830;44.064;12.566;2022-09-24T08:26:11;2.05;;;0.70;;
49015;SDS011;34830;44.064;12.566;2022-09-24T08:28:38;3.80;;;1.27;;
49015;SDS011;34830;44.064;12.566;2022-09-24T08:31:07;2.95;;;0.80;;
49015;SDS011;34830;44.064;12.566;2022-09-24T08:33:35;1.77;;;1.05;;
49015;SDS011;34830;44.064;12.566;2022-09-24T08:36:03;1.90;;;0.90;;
49015;SDS011;34830;44.064;12.566;2022-09-24T08:38:31;1.83;;;0.60;;
49015;SDS011;34830;44.064;12.566;2022-09-24T08:43:43;4.25;;;1.42;;
49015;SDS011;34830;44.064;12.566;2022-09-24T08:46:15;5.50;;;0.88;;
49015;SDS011;34830;44.064;12.566;2022-09-24T08:51:29;2.15;;;0.80;;
49015;SDS011;34830;44.064;12.566;2022-09-24T08:54:05;4.57;;;0.88;;
49015;SDS011;34830;44.064;12.566;2022-09-24T08:56:37;8.27;;;1.02;;
49015;SDS011;34830;44.064;12.566;2022-09-24T09:04:32;7.05;;;3.22;;
49015;SDS011;34830;44.064;12.566;2022-09-24T09:12:36;1.85;;;1.00;;
49015;SDS011;34830;44.064;12.566;2022-09-24T09:17:54;2.45;;;1.70;;
49015;SDS011;34830;44.064;12.566;2022-09-24T09:20:29;4.95;;;0.90;;
49015;SDS011;34830;44.064;12.566;2022-09-24T09:22:59;5.93;;;0.77;;
49015;SDS011;34830;44.064;12.566;2022-09-24T09:25:32;1.80;;;0.88;;
49015;SDS011;34830;44.064;12.566;2022-09-24T09:28:01;10.40;;;1.20;;
49015;SDS011;34830;44.064;12.566;2022-09-24T09:36:00;3.00;;;0.73;;
49015;SDS011;34830;44.064;12.566;2022-09-24T09:41:18;2.70;;;1.05;;
49015;SDS011;34830;44.064;12.566;2022-09-24T09:43:48;2.38;;;1.00;;
49015;SDS011;34830;44.064;12.566;2022-09-24T09:46:19;2.15;;;0.88;;
49015;SDS011;34830;44.064;12.566;2022-09-24T09:48:49;2.30;;;0.70;;
49015;SDS011;34830;44.064;12.566;2022-09-24T09:53:55;1.90;;;0.80;;
49015;SDS011;34830;44.064;12.566;2022-09-24T09:56:29;1.80;;;0.57;;
49015;SDS011;34830;44.064;12.566;2022-09-24T09:59:01;1.83;;;0.50;;
49015;SDS011;34830;44.064;12.566;2022-09-24T10:01:32;8.13;;;1.60;;
49015;SDS011;34830;44.064;12.566;2022-09-24T10:04:01;2.30;;;0.70;;
49015;SDS011;34830;44.064;12.566;2022-09-24T10:06:30;3.08;;;0.50;;
49015;SDS011;34830;44.064;12.566;2022-09-24T10:09:11;3.40;;;0.77;;
49015;SDS011;34830;44.064;12.566;2022-09-24T10:11:40;4.05;;;0.77;;
49015;SDS011;34830;44.064;12.566;2022-09-24T10:14:13;3.72;;;1.30;;
49015;SDS011;34830;44.064;12.566;2022-09-24T10:16:41;1.52;;;0.65;;
49015;SDS011;34830;44.064;12.566;2022-09-24T10:19:16;3.03;;;1.27;;
49015;SDS011;34830;44.064;12.566;2022-09-24T10:21:45;3.83;;;1.20;;
49015;SDS011;34830;44.064;12.566;2022-09-24T10:24:13;1.08;;;0.40;;
49015;SDS011;34830;44.064;12.566;2022-09-24T10:26:42;2.78;;;0.70;;
49015;SDS011;34830;44.064;12.566;2022-09-24T10:29:13;4.63;;;0.82;;
49015;SDS011;34830;44.064;12.566;2022-09-24T10:32:02;2.47;;;0.60;;
49015;SDS011;34830;44.064;12.566;2022-09-24T10:34:29;4.75;;;1.08;;
49015;SDS011;34830;44.064;12.566;2022-09-24T10:37:00;3.70;;;0.85;;
49015;SDS011;34830;44.064;12.566;2022-09-24T10:41:54;2.17;;;0.70;;
49015;SDS011;34830;44.064;12.566;2022-09-24T10:44:22;2.67;;;0.70;;
49015;SDS011;34830;44.064;12.566;2022-09-24T10:46:57;6.32;;;0.90;;
49015;SDS011;34830;44.064;12.566;2022-09-24T10:50:02;3.72;;;0.70;;
49015;SDS011;34830;44.064;12.566;2022-09-24T10:52:53;2.17;;;0.70;;
49015;SDS011;34830;44.064;12.566;2022-09-24T10:55:32;4.32;;;0.68;;
49015;SDS011;34830;44.064;12.566;2022-09-24T11:01:07;3.15;;;0.95;;
49015;SDS011;34830;44.064;12.566;2022-09-24T11:06:24;1.70;;;0.63;;
49015;SDS011;34830;44.064;12.566;2022-09-24T11:14:33;3.40;;;0.90;;
49015;SDS011;34830;44.064;12.566;2022-09-24T11:20:02;2.33;;;0.90;;
49015;SDS011;34830;44.064;12.566;2022-09-24T11:30:56;3.35;;;0.88;;
49015;SDS011;34830;44.064;12.566;2022-09-24T11:36:01;2.20;;;0.73;;
49015;SDS011;34830;44.064;12.566;2022-09-24T11:41:25;2.70;;;0.80;;
49015;SDS011;34830;44.064;12.566;2022-09-24T11:52:39;4.72;;;0.85;;
49015;SDS011;34830;44.064;12.566;2022-09-24T11:55:18;3.05;;;0.90;;
49015;SDS011;34830;44.064;12.566;2022-09-24T11:58:33;2.60;;;0.80;;
49015;SDS011;34830;44.064;12.566;2022-09-24T12:00:43;3.38;;;0.77;;
49015;SDS011;34830;44.064;12.566;2022-09-24T12:03:15;2.58;;;0.90;;
49015;SDS011;34830;44.064;12.566;2022-09-24T12:05:59;3.75;;;0.90;;
49015;SDS011;34830;44.064;12.566;2022-09-24T12:08:31;18.33;;;4.18;;
49015;SDS011;34830;44.064;12.566;2022-09-24T12:13:51;3.72;;;0.70;;
49015;SDS011;34830;44.064;12.566;2022-09-24T12:16:28;2.00;;;0.80;;
49015;SDS011;34830;44.064;12.566;2022-09-24T12:21:33;2.05;;;0.70;;
49015;SDS011;34830;44.064;12.566;2022-09-24T12:24:02;1.63;;;0.50;;
49015;SDS011;34830;44.064;12.566;2022-09-24T12:26:34;3.25;;;0.73;;
49015;SDS011;34830;44.064;12.566;2022-09-24T12:29:02;3.13;;;1.38;;
49015;SDS011;34830;44.064;12.566;2022-09-24T12:32:00;2.22;;;0.82;;
49015;SDS011;34830;44.064;12.566;2022-09-24T12:37:24;2.05;;;0.80;;
49015;SDS011;34830;44.064;12.566;2022-09-24T12:40:34;2.92;;;1.10;;
49015;SDS011;34830;44.064;12.566;2022-09-24T12:45:58;5.10;;;1.15;;
49015;SDS011;34830;44.064;12.566;2022-09-24T12:48:26;5.65;;;1.40;;
49015;SDS011;34830;44.064;12.566;2022-09-24T12:50:58;3.10;;;0.70;;
49015;SDS011;34830;44.064;12.566;2022-09-24T12:53:32;2.63;;;1.02;;
49015;SDS011;34830;44.064;12.566;2022-09-24T12:56:00;5.13;;;1.20;;
49015;SDS011;34830;44.064;12.566;2022-09-24T12:58:44;4.55;;;1.20;;
49015;SDS011;34830;44.064;12.566;2022-09-24T13:06:40;3.90;;;1.38;;
49015;SDS011;34830;44.064;12.566;2022-09-24T13:09:22;4.85;;;1.73;;
49015;SDS011;34830;44.064;12.566;2022-09-24T13:12:01;6.18;;;2.25;;
49015;SDS011;34830;44.064;12.566;2022-09-24T13:14:40;6.97;;;2.33;;
49015;SDS011;34830;44.064;12.566;2022-09-24T13:17:11;6.00;;;2.20;;
49015;SDS011;34830;44.064;12.566;2022-09-24T13:19:39;6.45;;;2.20;;
49015;SDS011;34830;44.064;12.566;2022-09-24T13:27:35;7.18;;;3.80;;
49015;SDS011;34830;44.064;12.566;2022-09-24T13:32:45;7.95;;;3.92;;
49015;SDS011;34830;44.064;12.566;2022-09-24T13:35:19;7.75;;;3.25;;
49015;SDS011;34830;44.064;12.566;2022-09-24T13:40:38;7.82;;;2.17;;
49015;SDS011;34830;44.064;12.566;2022-09-24T13:43:12;5.78;;;2.00;;
49015;SDS011;34830;44.064;12.566;2022-09-24T13:45:42;6.40;;;1.98;;
49015;SDS011;34830;44.064;12.566;2022-09-24T13:48:15;4.13;;;2.05;;
49015;SDS011;34830;44.064;12.566;2022-09-24T13:50:54;9.73;;;2.47;;
49015;SDS011;34830;44.064;12.566;2022-09-24T13:55:59;13.30;;;4.28;;
49015;SDS011;34830;44.064;12.566;2022-09-24T13:58:32;9.02;;;2.45;;
49015;SDS011;34830;44.064;12.566;2022-09-24T14:01:00;11.93;;;3.40;;
49015;SDS011;34830;44.064;12.566;2022-09-24T14:03:29;8.93;;;3.33;;
49015;SDS011;34830;44.064;12.566;2022-09-24T14:05:59;9.00;;;2.78;;
49015;SDS011;34830;44.064;12.566;2022-09-24T14:08:27;12.80;;;3.30;;
49015;SDS011;34830;44.064;12.566;2022-09-24T14:11:04;11.55;;;3.72;;
49015;SDS011;34830;44.064;12.566;2022-09-24T14:13:34;9.15;;;4.28;;
49015;SDS011;34830;44.064;12.566;2022-09-24T14:16:12;13.40;;;4.93;;
49015;SDS011;34830;44.064;12.566;2022-09-24T14:18:43;11.65;;;4.30;;
49015;SDS011;34830;44.064;12.566;2022-09-24T14:23:51;8.18;;;4.65;;
49015;SDS011;34830;44.064;12.566;2022-09-24T14:29:11;11.98;;;4.78;;
49015;SDS011;34830;44.064;12.566;2022-09-24T14:31:41;15.60;;;4.80;;
49015;SDS011;34830;44.064;12.566;2022-09-24T14:37:17;9.02;;;4.35;;
49015;SDS011;34830;44.064;12.566;2022-09-24T14:39:46;9.88;;;5.38;;
49015;SDS011;34830;44.064;12.566;2022-09-24T14:42:47;7.85;;;3.60;;
49015;SDS011;34830;44.064;12.566;2022-09-24T14:45:16;11.20;;;4.68;;
49015;SDS011;34830;44.064;12.566;2022-09-24T14:47:45;8.80;;;4.90;;
49015;SDS011;34830;44.064;12.566;2022-09-24T14:53:00;10.50;;;4.65;;
49015;SDS011;34830;44.064;12.566;2022-09-24T14:55:36;13.75;;;5.95;;
49015;SDS011;34830;44.064;12.566;2022-09-24T14:58:04;14.32;;;6.72;;
49015;SDS011;34830;44.064;12.566;2022-09-24T15:00:52;15.90;;;6.45;;
49015;SDS011;34830;44.064;12.566;2022-09-24T15:03:22;13.55;;;6.80;;
49015;SDS011;34830;44.064;12.566;2022-09-24T15:06:01;8.50;;;4.82;;
49015;SDS011;34830;44.064;12.566;2022-09-24T15:08:55;11.07;;;5.30;;
49015;SDS011;34830;44.064;12.566;2022-09-24T15:11:41;15.02;;;5.22;;
49015;SDS011;34830;44.064;12.566;2022-09-24T15:16:34;12.35;;;5.00;;
49015;SDS011;34830;44.064;12.566;2022-09-24T15:19:17;8.07;;;5.10;;
49015;SDS011;34830;44.064;12.566;2022-09-24T15:21:49;10.55;;;6.30;;
49015;SDS011;34830;44.064;12.566;2022-09-24T15:26:44;11.00;;;5.18;;
49015;SDS011;34830;44.064;12.566;2022-09-24T15:29:16;11.98;;;5.20;;
49015;SDS011;34830;44.064;12.566;2022-09-24T15:31:43;11.68;;;6.22;;
49015;SDS011;34830;44.064;12.566;2022-09-24T15:34:09;11.82;;;5.68;;
49015;SDS011;34830;44.064;12.566;2022-09-24T15:36:35;8.68;;;5.63;;
49015;SDS011;34830;44.064;12.566;2022-09-24T15:39:02;12.38;;;6.72;;
49015;SDS011;34830;44.064;12.566;2022-09-24T15:41:28;16.65;;;7.60;;
49015;SDS011;34830;44.064;12.566;2022-09-24T15:43:55;14.30;;;6.63;;
49015;SDS011;34830;44.064;12.566;2022-09-24T15:46:23;14.57;;;6.05;;
49015;SDS011;34830;44.064;12.566;2022-09-24T15:48:50;10.60;;;5.82;;
49015;SDS011;34830;44.064;12.566;2022-09-24T15:51:17;10.43;;;5.95;;
49015;SDS011;34830;44.064;12.566;2022-09-24T15:53:44;14.80;;;6.45;;
49015;SDS011;34830;44.064;12.566;2022-09-24T15:56:11;9.35;;;5.22;;
49015;SDS011;34830;44.064;12.566;2022-09-24T15:58:37;6.20;;;5.45;;
49015;SDS011;34830;44.064;12.566;2022-09-24T16:01:03;11.55;;;5.85;;
49015;SDS011;34830;44.064;12.566;2022-09-24T16:03:30;18.27;;;6.15;;
49015;SDS011;34830;44.064;12.566;2022-09-24T16:05:57;9.35;;;6.13;;
49015;SDS011;34830;44.064;12.566;2022-09-24T16:08:25;7.90;;;5.78;;
49015;SDS011;34830;44.064;12.566;2022-09-24T16:10:51;9.18;;;6.18;;
49015;SDS011;34830;44.064;12.566;2022-09-24T16:13:18;12.10;;;7.38;;
49015;SDS011;34830;44.064;12.566;2022-09-24T16:15:44;13.20;;;7.50;;
49015;SDS011;34830;44.064;12.566;2022-09-24T16:18:14;12.07;;;6.47;;
49015;SDS011;34830;44.064;12.566;2022-09-24T16:20:42;14.57;;;7.68;;
49015;SDS011;34830;44.064;12.566;2022-09-24T16:23:11;12.18;;;6.25;;
49015;SDS011;34830;44.064;12.566;2022-09-24T16:25:39;14.95;;;6.78;;
49015;SDS011;34830;44.064;12.566;2022-09-24T16:28:07;9.40;;;5.70;;
49015;SDS011;34830;44.064;12.566;2022-09-24T16:30:34;13.35;;;6.88;;
49015;SDS011;34830;44.064;12.566;2022-09-24T16:33:00;10.00;;;6.95;;
49015;SDS011;34830;44.064;12.566;2022-09-24T16:35:27;11.65;;;6.22;;
49015;SDS011;34830;44.064;12.566;2022-09-24T16:37:53;10.07;;;6.50;;
49015;SDS011;34830;44.064;12.566;2022-09-24T16:40:19;14.40;;;7.88;;
49015;SDS011;34830;44.064;12.566;2022-09-24T16:42:45;11.95;;;7.68;;
49015;SDS011;34830;44.064;12.566;2022-09-24T16:45:11;9.80;;;7.38;;
49015;SDS011;34830;44.064;12.566;2022-09-24T16:47:38;22.80;;;7.95;;
49015;SDS011;34830;44.064;12.566;2022-09-24T16:50:04;15.15;;;6.60;;
49015;SDS011;34830;44.064;12.566;2022-09-24T16:52:31;15.75;;;6.32;;
49015;SDS011;34830;44.064;12.566;2022-09-24T16:54:57;9.18;;;5.43;;
49015;SDS011;34830;44.064;12.566;2022-09-24T16:57:23;16.63;;;5.53;;
49015;SDS011;34830;44.064;12.566;2022-09-24T16:59:49;14.73;;;6.97;;
49015;SDS011;34830;44.064;12.566;2022-09-24T17:02:15;14.05;;;6.85;;